createdAt,value
2019-03-31T00:01:45.365Z,73.30
2019-03-31T00:04:14.670Z,73.80
2019-03-31T00:06:43.904Z,72.70
2019-03-31T00:09:13.163Z,72.10
2019-03-31T00:11:42.437Z,73.30
2019-03-31T00:14:11.639Z,74.10
2019-03-31T00:16:40.857Z,74.40
2019-03-31T00:19:10.097Z,75.00
2019-03-31T00:21:39.395Z,76.00
2019-03-31T00:24:08.689Z,75.60
2019-03-31T00:26:37.912Z,75.30
2019-03-31T00:29:07.181Z,74.90
2019-03-31T00:31:36.457Z,74.50
2019-03-31T00:34:05.659Z,74.30
2019-03-31T00:36:34.856Z,75.30
2019-03-31T00:39:06.150Z,76.10
2019-03-31T00:41:35.427Z,77.10
2019-03-31T00:44:04.761Z,76.60
2019-03-31T00:46:34.041Z,76.20
2019-03-31T00:49:03.320Z,76.20
2019-03-31T00:51:32.525Z,75.90
2019-03-31T00:54:02.164Z,75.30
2019-03-31T00:56:31.854Z,73.80
2019-03-31T00:59:01.059Z,73.90
2019-03-31T01:01:37.103Z,74.20
2019-03-31T01:04:07.444Z,75.40
2019-03-31T01:06:36.823Z,75.90
2019-03-31T01:09:15.730Z,76.00
2019-03-31T01:11:45.001Z,75.80
2019-03-31T01:14:14.473Z,75.70
2019-03-31T01:16:44.110Z,76.00
2019-03-31T01:19:13.421Z,75.80
2019-03-31T01:21:43.005Z,75.70
2019-03-31T01:24:12.350Z,76.90
2019-03-31T01:26:42.022Z,76.10
2019-03-31T01:29:11.233Z,76.40
2019-03-31T01:31:50.184Z,76.70
2019-03-31T01:34:11.671Z,76.50
2019-03-31T01:36:40.894Z,76.40
2019-03-31T01:39:10.124Z,76.40
2019-03-31T01:41:39.769Z,76.00
2019-03-31T01:44:09.701Z,75.60
2019-03-31T01:46:38.983Z,74.90
2019-03-31T01:49:08.251Z,73.80
2019-03-31T01:51:37.591Z,72.90
2019-03-31T01:54:06.883Z,73.70
2019-03-31T01:56:36.150Z,74.20
2019-03-31T01:59:05.460Z,74.80
2019-03-31T02:01:34.874Z,75.40
2019-03-31T02:04:04.148Z,76.30
2019-03-31T02:06:33.714Z,77.40
2019-03-31T02:09:02.900Z,78.80
2019-03-31T02:11:32.103Z,79.40
2019-03-31T02:14:01.337Z,79.40
2019-03-31T02:16:31.053Z,79.40
2019-03-31T02:19:00.349Z,79.20
2019-03-31T02:21:29.595Z,78.80
2019-03-31T02:23:59.249Z,78.60
2019-03-31T02:26:28.436Z,78.50
2019-03-31T02:28:57.686Z,79.10
2019-03-31T02:31:26.897Z,79.20
2019-03-31T02:33:56.102Z,79.70
2019-03-31T02:36:25.307Z,78.90
2019-03-31T02:38:54.491Z,78.70
2019-03-31T02:41:23.709Z,78.90
2019-03-31T02:43:54.488Z,79.20
2019-03-31T02:46:23.787Z,80.40
2019-03-31T02:48:53.154Z,80.50
2019-03-31T02:51:22.397Z,81.10
2019-03-31T02:53:51.717Z,81.10
2019-03-31T02:56:21.284Z,81.20
2019-03-31T02:58:50.543Z,81.90
2019-03-31T03:01:21.054Z,82.90
2019-03-31T03:03:50.308Z,83.40
2019-03-31T03:06:20.495Z,82.40
2019-03-31T03:08:50.854Z,82.10
2019-03-31T03:11:20.070Z,82.30
2019-03-31T03:13:50.327Z,80.80
2019-03-31T03:16:20.816Z,80.20
2019-03-31T03:18:50.139Z,80.30
2019-03-31T03:21:23.701Z,80.30
2019-03-31T03:23:51.192Z,80.00
2019-03-31T03:26:20.372Z,79.10
2019-03-31T03:28:49.604Z,79.40
2019-03-31T03:31:18.876Z,79.20
2019-03-31T03:33:48.182Z,79.50
2019-03-31T03:36:17.496Z,79.80
2019-03-31T03:38:46.712Z,80.10
2019-03-31T03:41:15.981Z,80.70
2019-03-31T03:43:54.954Z,80.20
2019-03-31T03:46:16.729Z,80.30
2019-03-31T03:48:46.280Z,79.40
2019-03-31T03:51:15.581Z,79.30
2019-03-31T03:53:45.017Z,79.40
2019-03-31T03:56:14.232Z,78.80
2019-03-31T03:58:43.857Z,79.30
2019-03-31T04:01:21.263Z,80.00
2019-03-31T04:03:50.470Z,80.90
2019-03-31T04:06:19.666Z,81.10
2019-03-31T04:08:49.222Z,81.80
2019-03-31T04:11:28.366Z,82.00
2019-03-31T04:13:58.667Z,81.60
2019-03-31T04:16:28.113Z,81.10
2019-03-31T04:18:57.305Z,81.50
2019-03-31T04:21:26.874Z,80.30
2019-03-31T04:23:56.609Z,79.70
2019-03-31T04:26:26.475Z,80.00
2019-03-31T04:28:55.691Z,80.80
2019-03-31T04:31:25.019Z,81.30
2019-03-31T04:33:54.221Z,82.00
2019-03-31T04:36:23.698Z,81.80
2019-03-31T04:38:52.896Z,82.10
2019-03-31T04:41:22.359Z,81.00
2019-03-31T04:43:51.930Z,81.80
2019-03-31T04:46:21.477Z,82.50
2019-03-31T04:48:50.684Z,80.30
2019-03-31T04:51:20.172Z,78.70
2019-03-31T04:53:49.424Z,78.40
2019-03-31T04:56:18.957Z,79.90
2019-03-31T04:58:48.288Z,80.80
2019-03-31T05:01:17.509Z,80.50
2019-03-31T05:03:46.729Z,80.70
2019-03-31T05:06:15.949Z,80.90
2019-03-31T05:08:45.210Z,80.90
2019-03-31T05:11:14.413Z,80.30
2019-03-31T05:13:43.661Z,80.10
2019-03-31T05:16:13.000Z,79.90
2019-03-31T05:18:42.197Z,80.80
2019-03-31T05:21:11.404Z,80.10
2019-03-31T05:23:40.645Z,80.20
2019-03-31T05:26:09.817Z,78.90
2019-03-31T05:28:39.099Z,79.60
2019-03-31T05:31:08.588Z,80.00
2019-03-31T05:33:37.810Z,80.90
2019-03-31T05:36:07.002Z,79.90
2019-03-31T05:38:36.197Z,80.50
2019-03-31T05:41:05.494Z,80.30
2019-03-31T05:43:34.732Z,80.20
2019-03-31T05:46:04.000Z,79.90
2019-03-31T05:48:33.188Z,80.20
2019-03-31T05:51:02.376Z,80.20
2019-03-31T05:53:31.581Z,80.50
2019-03-31T05:56:00.768Z,80.30
2019-03-31T05:58:30.617Z,80.20
2019-03-31T06:01:00.218Z,80.60
2019-03-31T06:03:29.526Z,81.10
2019-03-31T06:05:58.820Z,81.40
2019-03-31T06:08:28.135Z,81.80
2019-03-31T06:10:57.316Z,82.00
2019-03-31T06:13:26.526Z,81.90
2019-03-31T06:15:55.745Z,81.50
2019-03-31T06:18:24.965Z,81.90
2019-03-31T06:20:54.574Z,81.20
2019-03-31T06:23:23.855Z,80.30
2019-03-31T06:25:53.108Z,79.80
2019-03-31T06:28:22.419Z,79.20
2019-03-31T06:30:51.747Z,78.80
2019-03-31T06:33:21.067Z,79.60
2019-03-31T06:35:50.255Z,79.10
2019-03-31T06:38:19.460Z,80.00
2019-03-31T06:40:51.334Z,80.40
2019-03-31T06:43:20.624Z,79.40
2019-03-31T06:45:49.855Z,78.90
2019-03-31T06:48:19.321Z,78.30
2019-03-31T06:50:48.534Z,77.10
2019-03-31T06:53:17.751Z,76.70
2019-03-31T06:55:46.945Z,74.90
2019-03-31T06:58:16.147Z,72.80
2019-03-31T07:00:45.329Z,72.40
2019-03-31T07:03:14.565Z,71.50
2019-03-31T07:05:43.855Z,70.10
2019-03-31T07:08:13.133Z,67.50
2019-03-31T07:10:42.312Z,65.50
2019-03-31T07:13:11.500Z,64.90
2019-03-31T07:15:40.693Z,63.80
2019-03-31T07:18:09.935Z,61.90
2019-03-31T07:20:39.141Z,59.80
2019-03-31T07:23:08.692Z,59.30
2019-03-31T07:25:37.996Z,58.30
2019-03-31T07:28:07.272Z,56.60
2019-03-31T07:30:36.566Z,55.60
2019-03-31T07:33:06.178Z,55.30
2019-03-31T07:35:38.741Z,54.80
2019-03-31T07:38:06.410Z,54.00
2019-03-31T07:40:36.116Z,53.00
2019-03-31T07:43:06.069Z,51.90
2019-03-31T07:45:35.838Z,51.70
2019-03-31T07:48:08.010Z,51.30
2019-03-31T07:50:36.237Z,50.90
2019-03-31T07:53:05.469Z,49.60
2019-03-31T07:55:34.673Z,49.60
2019-03-31T07:58:03.873Z,49.30
2019-03-31T08:00:33.411Z,48.50
2019-03-31T08:03:02.760Z,48.10
2019-03-31T08:05:33.851Z,48.70
2019-03-31T08:08:02.998Z,47.40
2019-03-31T08:10:32.190Z,47.20
2019-03-31T08:13:01.414Z,47.70
2019-03-31T08:15:30.610Z,47.00
2019-03-31T08:17:59.789Z,46.40
2019-03-31T08:20:28.969Z,46.20
2019-03-31T08:22:58.236Z,46.00
2019-03-31T08:25:27.465Z,45.60
2019-03-31T08:27:56.849Z,45.20
2019-03-31T08:30:26.772Z,44.60
2019-03-31T08:32:56.045Z,44.30
2019-03-31T08:35:25.366Z,44.30
2019-03-31T08:37:54.552Z,44.30
2019-03-31T08:40:23.773Z,44.00
2019-03-31T08:42:53.060Z,44.20
2019-03-31T08:45:22.316Z,43.40
2019-03-31T08:47:51.847Z,42.70
2019-03-31T08:50:21.145Z,42.60
2019-03-31T08:52:50.402Z,41.90
2019-03-31T08:55:19.621Z,41.40
2019-03-31T08:57:48.964Z,40.40
2019-03-31T09:00:31.893Z,41.50
2019-03-31T09:03:01.231Z,40.30
2019-03-31T09:05:30.531Z,40.20
2019-03-31T09:07:59.734Z,39.50
2019-03-31T09:10:28.915Z,40.00
2019-03-31T09:12:58.162Z,39.70
2019-03-31T09:15:27.384Z,39.60
2019-03-31T09:17:56.564Z,40.00
2019-03-31T09:20:25.761Z,38.50
2019-03-31T09:22:55.074Z,38.30
2019-03-31T09:25:24.324Z,39.00
2019-03-31T09:27:53.574Z,37.90
2019-03-31T09:30:22.873Z,38.30
2019-03-31T09:32:52.137Z,38.10
2019-03-31T09:35:21.336Z,37.90
2019-03-31T09:37:50.625Z,37.10
2019-03-31T09:40:20.454Z,36.60
2019-03-31T09:42:49.654Z,36.90
2019-03-31T09:45:18.970Z,36.30
2019-03-31T09:47:48.160Z,36.20
2019-03-31T09:50:17.729Z,35.80
2019-03-31T09:52:47.056Z,34.90
2019-03-31T09:55:16.255Z,34.30
2019-03-31T09:57:45.991Z,31.70
2019-03-31T10:00:15.894Z,30.30
2019-03-31T10:02:45.152Z,31.40
2019-03-31T10:05:14.622Z,30.50
2019-03-31T10:07:43.831Z,28.80
2019-03-31T10:10:29.806Z,27.60
2019-03-31T10:12:59.236Z,27.00
2019-03-31T10:15:28.448Z,26.50
2019-03-31T10:17:57.740Z,27.00
2019-03-31T10:20:26.950Z,27.30
2019-03-31T10:22:56.143Z,26.70
2019-03-31T10:25:25.357Z,26.80
2019-03-31T10:27:54.543Z,26.80
2019-03-31T10:30:33.949Z,26.90
2019-03-31T10:33:03.184Z,27.10
2019-03-31T10:35:32.393Z,26.20
2019-03-31T10:38:01.592Z,26.70
2019-03-31T10:40:31.228Z,27.20
2019-03-31T10:43:00.488Z,27.60
2019-03-31T10:45:29.777Z,27.10
2019-03-31T10:47:59.277Z,26.90
2019-03-31T10:50:28.465Z,27.30
2019-03-31T10:52:57.712Z,26.90
2019-03-31T10:55:27.241Z,27.00
2019-03-31T10:57:56.540Z,27.20
2019-03-31T11:00:33.552Z,26.90
2019-03-31T11:03:02.772Z,27.40
2019-03-31T11:05:32.131Z,27.10
2019-03-31T11:08:01.309Z,27.50
2019-03-31T11:10:30.825Z,27.80
2019-03-31T11:13:00.100Z,28.20
2019-03-31T11:15:29.486Z,28.30
2019-03-31T11:17:59.078Z,27.60
2019-03-31T11:20:28.603Z,28.30
2019-03-31T11:23:06.960Z,28.20
2019-03-31T11:25:36.171Z,28.40
2019-03-31T11:28:05.446Z,28.00
2019-03-31T11:30:34.704Z,28.50
2019-03-31T11:33:07.322Z,27.60
2019-03-31T11:35:34.931Z,27.70
2019-03-31T11:38:04.156Z,27.80
2019-03-31T11:40:33.387Z,27.70
2019-03-31T11:43:02.798Z,27.90
2019-03-31T11:45:31.998Z,27.60
2019-03-31T11:48:01.188Z,27.80
2019-03-31T11:50:30.457Z,27.70
2019-03-31T11:52:59.675Z,28.50
2019-03-31T11:55:28.877Z,28.30
2019-03-31T11:57:58.194Z,28.20
2019-03-31T12:00:28.836Z,28.70
2019-03-31T12:02:58.059Z,28.20
2019-03-31T12:05:27.257Z,28.40
2019-03-31T12:07:56.468Z,28.50
2019-03-31T12:10:25.753Z,28.40
2019-03-31T12:12:55.068Z,28.00
2019-03-31T12:15:24.344Z,28.10
2019-03-31T12:17:53.545Z,27.40
2019-03-31T12:20:22.849Z,27.40
2019-03-31T12:22:52.043Z,27.90
2019-03-31T12:25:21.294Z,28.20
2019-03-31T12:27:50.562Z,28.10
2019-03-31T12:30:27.072Z,28.20
2019-03-31T12:32:56.352Z,28.20
2019-03-31T12:35:25.690Z,27.80
2019-03-31T12:37:54.940Z,27.50
2019-03-31T12:40:31.458Z,27.70
2019-03-31T12:43:00.731Z,28.20
2019-03-31T12:45:29.924Z,27.80
2019-03-31T12:48:01.250Z,28.00
2019-03-31T12:50:30.656Z,28.00
2019-03-31T12:52:59.950Z,27.90
2019-03-31T12:55:29.232Z,27.80
2019-03-31T12:57:58.442Z,28.10
2019-03-31T13:00:27.820Z,27.90
2019-03-31T13:02:57.893Z,27.20
2019-03-31T13:05:27.168Z,27.30
2019-03-31T13:07:57.083Z,27.00
2019-03-31T13:10:26.387Z,27.60
2019-03-31T13:12:55.687Z,26.80
2019-03-31T13:15:24.968Z,27.00
2019-03-31T13:17:54.174Z,27.00
2019-03-31T13:20:23.607Z,27.40
2019-03-31T13:22:52.872Z,27.10
2019-03-31T13:25:22.177Z,27.40
2019-03-31T13:27:51.474Z,27.40
2019-03-31T13:30:22.067Z,27.80
2019-03-31T13:32:51.505Z,28.20
2019-03-31T13:35:20.812Z,27.50
2019-03-31T13:37:50.102Z,27.50
2019-03-31T13:40:19.716Z,28.10
2019-03-31T13:42:49.409Z,28.60
2019-03-31T13:45:18.684Z,28.30
2019-03-31T13:47:48.177Z,28.00
2019-03-31T13:50:17.519Z,28.20
2019-03-31T13:52:46.726Z,28.60
2019-03-31T13:55:16.024Z,29.10
2019-03-31T13:57:47.298Z,29.10
2019-03-31T14:00:25.080Z,29.20
2019-03-31T14:02:52.667Z,30.20
2019-03-31T14:05:22.319Z,29.90
2019-03-31T14:07:51.572Z,30.00
2019-03-31T14:10:20.765Z,29.70
2019-03-31T14:12:50.267Z,30.20
2019-03-31T14:15:19.896Z,30.10
2019-03-31T14:17:49.397Z,30.40
2019-03-31T14:20:18.644Z,30.20
2019-03-31T14:22:47.982Z,30.50
2019-03-31T14:25:17.247Z,30.50
2019-03-31T14:27:46.441Z,30.70
2019-03-31T14:30:15.978Z,30.50
2019-03-31T14:32:45.265Z,30.50
2019-03-31T14:35:14.541Z,31.00
2019-03-31T14:37:43.762Z,30.50
2019-03-31T14:40:12.934Z,30.70
2019-03-31T14:42:42.127Z,30.50
2019-03-31T14:45:16.647Z,31.20
2019-03-31T14:47:45.923Z,30.50
2019-03-31T14:50:21.876Z,30.00
2019-03-31T14:52:51.271Z,29.60
2019-03-31T14:55:20.546Z,29.80
2019-03-31T14:57:49.804Z,29.50
2019-03-31T15:00:19.077Z,29.80
2019-03-31T15:02:48.392Z,29.50
2019-03-31T15:05:17.721Z,29.10
2019-03-31T15:07:47.352Z,29.40
2019-03-31T15:10:16.609Z,30.00
2019-03-31T15:12:45.832Z,30.00
2019-03-31T15:15:15.096Z,30.50
2019-03-31T15:17:44.323Z,31.50
2019-03-31T15:20:14.106Z,30.70
2019-03-31T15:22:44.375Z,30.00
2019-03-31T15:25:13.981Z,30.00
2019-03-31T15:27:43.182Z,30.00
2019-03-31T15:30:12.493Z,30.00
2019-03-31T15:32:41.761Z,30.00
2019-03-31T15:35:11.073Z,30.50
2019-03-31T15:37:40.597Z,30.30
2019-03-31T15:40:09.867Z,30.80
2019-03-31T15:42:39.236Z,30.80
2019-03-31T15:45:08.790Z,31.00
2019-03-31T15:47:38.027Z,31.40
2019-03-31T15:50:07.808Z,31.80
2019-03-31T15:52:37.145Z,31.50
2019-03-31T15:55:06.810Z,31.90
2019-03-31T15:57:36.361Z,31.50
2019-03-31T16:00:07.017Z,30.00
2019-03-31T16:02:36.224Z,30.40
2019-03-31T16:05:05.970Z,31.00
2019-03-31T16:07:35.278Z,31.20
2019-03-31T16:10:04.210Z,31.20
2019-03-31T16:12:32.895Z,31.90
2019-03-31T16:15:01.584Z,32.20
2019-03-31T16:17:30.698Z,32.00
2019-03-31T16:19:59.376Z,32.10
2019-03-31T16:22:28.497Z,31.50
2019-03-31T16:27:26.780Z,31.60
2019-03-31T16:29:55.541Z,31.70
2019-03-31T16:32:24.368Z,32.20
2019-03-31T16:34:53.129Z,32.20
2019-03-31T16:37:21.792Z,32.20
2019-03-31T16:39:50.494Z,32.50
2019-03-31T16:42:19.549Z,32.10
2019-03-31T16:47:25.322Z,32.60
2019-03-31T16:49:54.518Z,32.40
2019-03-31T16:52:23.228Z,33.20
2019-03-31T16:54:52.396Z,33.40
2019-03-31T16:57:21.134Z,33.50
2019-03-31T16:59:49.837Z,33.20
2019-03-31T17:02:18.602Z,33.80
2019-03-31T17:04:47.359Z,33.30
2019-03-31T17:07:16.095Z,40.60
2019-03-31T17:12:14.867Z,33.50
2019-03-31T17:14:43.562Z,34.20
2019-03-31T17:17:12.303Z,33.80
2019-03-31T17:19:41.280Z,33.80
2019-03-31T17:22:09.946Z,33.90
2019-03-31T17:24:38.609Z,34.10
2019-03-31T17:27:07.407Z,33.70
2019-03-31T17:32:04.607Z,33.70
2019-03-31T17:34:33.291Z,34.50
2019-03-31T17:37:01.950Z,34.60
2019-03-31T17:41:59.000Z,34.10
2019-03-31T17:44:28.109Z,34.70
2019-03-31T17:46:56.955Z,35.00
2019-03-31T17:49:25.609Z,34.80
2019-03-31T17:54:25.991Z,35.00
2019-03-31T17:56:54.677Z,35.00
2019-03-31T17:59:23.461Z,35.60
2019-03-31T18:01:52.449Z,35.70
2019-03-31T18:04:21.166Z,35.40
2019-03-31T18:06:49.841Z,36.00
2019-03-31T18:09:18.731Z,36.60
2019-03-31T18:11:47.379Z,35.80
2019-03-31T18:16:44.402Z,36.20
2019-03-31T18:19:13.240Z,36.90
2019-03-31T18:21:41.912Z,37.20
2019-03-31T18:24:10.679Z,37.30
2019-03-31T18:26:39.419Z,37.40
2019-03-31T18:29:08.114Z,37.70
2019-03-31T18:31:36.812Z,38.60
2019-03-31T18:34:05.960Z,37.90
2019-03-31T18:39:06.616Z,38.60
2019-03-31T18:41:35.322Z,39.60
2019-03-31T18:44:04.204Z,39.20
2019-03-31T18:46:33.029Z,39.80
2019-03-31T18:49:01.697Z,40.00
2019-03-31T18:51:30.369Z,40.50
2019-03-31T18:54:24.229Z,40.00
2019-03-31T18:56:59.305Z,40.50
2019-03-31T19:05:18.593Z,41.10
2019-03-31T19:08:24.788Z,42.10
2019-03-31T19:11:14.891Z,42.10
2019-03-31T19:14:05.186Z,42.70
2019-03-31T19:16:46.855Z,42.60
2019-03-31T19:19:28.958Z,42.80
2019-03-31T19:22:16.792Z,43.70
2019-03-31T19:25:06.082Z,42.90
2019-03-31T19:30:46.480Z,43.70
2019-03-31T19:33:40.241Z,43.80
2019-03-31T19:36:43.108Z,44.60
2019-03-31T19:39:29.973Z,44.90
2019-03-31T19:42:20.641Z,45.20
2019-03-31T19:45:08.465Z,45.40
2019-03-31T19:47:55.250Z,45.50
2019-03-31T19:50:42.066Z,45.50
2019-03-31T19:53:28.800Z,45.90
2019-03-31T19:56:15.546Z,46.30
2019-03-31T19:59:15.773Z,47.10
2019-03-31T20:02:02.236Z,47.80
2019-03-31T20:04:47.577Z,48.20
2019-03-31T20:10:30.527Z,48.60
2019-03-31T20:13:17.342Z,49.80
2019-03-31T20:16:08.302Z,50.70
2019-03-31T20:19:07.864Z,51.00
2019-03-31T20:21:45.232Z,51.40
2019-03-31T20:24:31.593Z,52.00
2019-03-31T20:27:15.575Z,52.30
2019-03-31T20:30:02.207Z,52.60
2019-03-31T20:32:53.422Z,52.70
2019-03-31T20:35:50.191Z,52.80
2019-03-31T20:38:40.033Z,53.00
2019-03-31T20:43:56.526Z,53.40
2019-03-31T20:46:25.406Z,54.40
2019-03-31T20:48:54.110Z,54.70
2019-03-31T20:51:22.776Z,54.90
2019-03-31T20:53:51.529Z,54.90
2019-03-31T20:56:21.288Z,55.10
2019-03-31T20:58:49.972Z,55.30
2019-03-31T21:01:18.640Z,56.10
2019-03-31T21:06:16.033Z,56.50
2019-03-31T21:08:45.038Z,57.30
2019-03-31T21:11:14.780Z,57.40
2019-03-31T21:13:43.676Z,57.40
2019-03-31T21:16:12.450Z,57.60
2019-03-31T21:18:41.367Z,57.70
2019-03-31T21:26:07.113Z,57.50
2019-03-31T21:31:04.466Z,57.90
2019-03-31T21:33:33.390Z,58.40
2019-03-31T21:36:02.344Z,58.70
2019-03-31T21:38:31.386Z,58.40
2019-03-31T21:41:00.213Z,58.80
2019-03-31T21:43:29.382Z,58.80
2019-03-31T21:48:26.645Z,58.60
2019-03-31T21:50:55.541Z,59.80
2019-03-31T21:53:24.330Z,60.40
2019-03-31T21:58:21.813Z,59.90
2019-03-31T22:00:52.781Z,60.70
2019-03-31T22:03:23.684Z,61.10
2019-03-31T22:05:52.498Z,60.40
2019-03-31T22:10:49.646Z,60.60
2019-03-31T22:13:18.431Z,61.60
2019-03-31T22:15:47.243Z,62.40
2019-03-31T22:18:16.369Z,60.90
2019-03-31T22:20:47.317Z,61.00
2019-03-31T22:23:16.125Z,62.00
2019-03-31T22:25:45.013Z,62.80
2019-03-31T22:28:13.795Z,62.70
2019-03-31T22:33:11.202Z,63.30
2019-03-31T22:35:40.126Z,64.40
2019-03-31T22:38:09.007Z,65.00
2019-03-31T22:40:37.962Z,65.00
2019-03-31T22:43:07.959Z,65.10
2019-03-31T22:45:36.955Z,65.90
2019-03-31T22:48:05.745Z,65.40
2019-03-31T22:50:34.499Z,65.60
2019-03-31T22:55:32.765Z,65.40
2019-03-31T22:58:01.530Z,66.10
2019-03-31T23:00:30.506Z,65.70
2019-03-31T23:02:59.262Z,66.40
2019-03-31T23:05:28.125Z,66.60
2019-03-31T23:07:57.104Z,66.50
2019-03-31T23:10:25.831Z,66.30
2019-03-31T23:15:23.164Z,66.10
2019-03-31T23:17:52.449Z,66.10
2019-03-31T23:20:21.370Z,66.90
2019-03-31T23:22:50.124Z,68.10
2019-03-31T23:25:19.075Z,67.60
2019-03-31T23:27:48.023Z,67.80
2019-03-31T23:30:17.205Z,68.30
2019-03-31T23:32:46.200Z,67.50
2019-03-31T23:37:43.532Z,66.10
2019-03-31T23:40:12.503Z,66.70
2019-03-31T23:42:41.457Z,66.40
2019-03-31T23:45:10.260Z,67.00
2019-03-31T23:47:39.023Z,67.40
2019-03-31T23:50:07.873Z,68.20
2019-03-31T23:52:36.677Z,69.10
2019-03-31T23:55:05.601Z,70.00
2019-03-31T23:57:41.200Z,70.20
